createdAt,value
2018-10-03T00:00:07.227Z,99226.39
2018-10-03T00:02:35.908Z,99223.95
2018-10-03T00:05:04.543Z,99236.88
2018-10-03T00:07:33.039Z,99239.11
2018-10-03T00:10:01.674Z,99255.70
2018-10-03T00:12:30.210Z,99242.27
2018-10-03T00:14:58.956Z,99261.80
2018-10-03T00:17:28.004Z,99273.03
2018-10-03T00:19:56.486Z,99285.14
2018-10-03T00:22:25.320Z,99279.63
2018-10-03T00:24:54.060Z,99281.12
2018-10-03T00:27:22.666Z,99290.13
2018-10-03T00:29:51.166Z,99287.77
2018-10-03T00:32:19.686Z,99300.34
2018-10-03T00:34:48.328Z,99297.32
2018-10-03T00:37:16.851Z,99304.56
2018-10-03T00:39:45.630Z,99311.12
2018-10-03T00:42:14.178Z,99314.11
2018-10-03T00:44:42.887Z,99320.67
2018-10-03T00:47:11.513Z,99315.23
2018-10-03T00:49:40.052Z,99323.20
2018-10-03T00:52:08.654Z,99231.30
2018-10-03T00:54:37.170Z,99344.98
2018-10-03T00:57:05.910Z,99352.95
2018-10-03T00:59:34.538Z,99356.60
2018-10-03T01:02:03.141Z,99359.31
2018-10-03T01:04:31.664Z,99363.52
2018-10-03T01:07:00.166Z,99368.62
2018-10-03T01:09:28.778Z,99376.98
2018-10-03T01:11:57.253Z,99379.77
2018-10-03T01:14:25.878Z,99377.86
2018-10-03T01:16:54.507Z,99385.13
2018-10-03T01:19:23.235Z,99388.30
2018-10-03T01:21:52.626Z,99397.65
2018-10-03T01:24:21.241Z,99403.43
2018-10-03T01:26:49.830Z,99391.77
2018-10-03T01:29:18.324Z,99411.63
2018-10-03T01:31:47.095Z,99417.98
2018-10-03T01:34:15.594Z,99418.97
2018-10-03T01:36:44.335Z,99426.18
2018-10-03T01:39:12.907Z,99408.80
2018-10-03T01:41:41.779Z,99434.42
2018-10-03T01:44:10.318Z,99449.37
2018-10-03T01:46:39.286Z,99458.78
2018-10-03T01:49:08.182Z,99412.11
2018-10-03T01:51:36.707Z,99479.95
2018-10-03T01:54:05.439Z,99490.44
2018-10-03T01:56:33.930Z,99490.07
2018-10-03T01:59:02.694Z,99495.26
2018-10-03T02:01:31.251Z,99499.88
2018-10-03T02:03:59.762Z,99493.90
2018-10-03T02:06:28.314Z,99506.37
2018-10-03T02:08:56.833Z,99507.47
2018-10-03T02:11:25.598Z,99508.00
2018-10-03T02:13:54.162Z,99518.27
2018-10-03T02:16:22.938Z,99518.34
2018-10-03T02:18:51.579Z,99524.56
2018-10-03T02:21:20.195Z,99526.59
2018-10-03T02:23:48.804Z,99534.60
2018-10-03T02:26:17.388Z,99544.45
2018-10-03T02:28:46.277Z,99551.30
2018-10-03T02:31:14.858Z,99555.45
2018-10-03T02:33:43.579Z,99567.16
2018-10-03T02:36:12.160Z,99564.54
2018-10-03T02:38:40.858Z,99573.78
2018-10-03T02:41:09.410Z,99581.27
2018-10-03T02:43:37.899Z,99586.65
2018-10-03T02:46:06.800Z,99581.64
2018-10-03T02:48:35.306Z,99593.20
2018-10-03T02:51:04.133Z,99585.87
2018-10-03T02:53:32.678Z,99597.27
2018-10-03T02:56:01.372Z,99601.91
2018-10-03T02:58:29.916Z,99600.97
2018-10-03T03:00:59.239Z,99609.91
2018-10-03T03:03:27.792Z,99616.91
2018-10-03T03:05:56.300Z,99623.00
2018-10-03T03:08:25.139Z,99546.67
2018-10-03T03:10:53.719Z,99637.13
2018-10-03T03:13:22.447Z,99643.30
2018-10-03T03:15:51.011Z,99649.84
2018-10-03T03:18:19.520Z,99660.09
2018-10-03T03:20:47.990Z,99664.46
2018-10-03T03:23:16.598Z,99668.45
2018-10-03T03:25:45.319Z,99679.07
2018-10-03T03:28:13.822Z,99684.97
2018-10-03T03:30:42.705Z,99701.67
2018-10-03T03:33:11.272Z,99695.86
2018-10-03T03:35:40.061Z,99700.72
2018-10-03T03:38:08.626Z,99707.26
2018-10-03T03:40:37.379Z,99707.77
2018-10-03T03:43:05.876Z,99716.03
2018-10-03T03:45:34.414Z,99723.23
2018-10-03T03:48:03.090Z,99681.58
2018-10-03T03:50:31.550Z,99733.05
2018-10-03T03:53:02.294Z,99738.38
2018-10-03T03:55:30.824Z,99747.19
2018-10-03T03:57:59.546Z,99636.30
2018-10-03T04:00:28.111Z,99761.20
2018-10-03T04:02:56.658Z,99769.97
2018-10-03T04:05:25.136Z,99771.94
2018-10-03T04:07:53.743Z,99774.17
2018-10-03T04:10:22.407Z,99781.73
2018-10-03T04:12:51.206Z,99780.97
2018-10-03T04:15:20.094Z,99699.81
2018-10-03T04:17:48.739Z,99791.81
2018-10-03T04:20:17.317Z,99801.48
2018-10-03T04:22:45.899Z,99811.05
2018-10-03T04:25:14.611Z,99813.13
2018-10-03T04:27:43.269Z,99810.00
2018-10-03T04:30:11.839Z,99815.22
2018-10-03T04:32:40.389Z,99823.59
2018-10-03T04:35:09.002Z,99820.84
2018-10-03T04:37:37.630Z,99831.37
2018-10-03T04:40:06.210Z,99837.91
2018-10-03T04:42:34.767Z,99851.40
2018-10-03T04:45:03.458Z,99857.07
2018-10-03T04:47:32.342Z,99862.04
2018-10-03T04:50:01.115Z,99855.87
2018-10-03T04:52:29.629Z,99870.29
2018-10-03T04:54:58.462Z,99880.56
2018-10-03T04:57:26.976Z,99879.56
2018-10-03T04:59:55.606Z,99887.73
2018-10-03T05:02:24.350Z,99895.94
2018-10-03T05:04:52.858Z,99904.41
2018-10-03T05:07:21.386Z,99911.31
2018-10-03T05:09:49.843Z,99909.01
2018-10-03T05:12:18.578Z,99921.17
2018-10-03T05:14:47.131Z,99937.61
2018-10-03T05:17:15.804Z,99931.58
2018-10-03T05:19:44.335Z,99933.55
2018-10-03T05:22:13.081Z,99945.64
2018-10-03T05:24:41.631Z,99945.06
2018-10-03T05:27:11.228Z,99958.67
2018-10-03T05:29:39.898Z,99954.63
2018-10-03T05:32:08.375Z,99971.70
2018-10-03T05:34:37.214Z,99973.14
2018-10-03T05:37:05.746Z,99978.06
2018-10-03T05:39:34.399Z,99983.75
2018-10-03T05:42:02.941Z,99994.22
2018-10-03T05:44:31.441Z,99997.64
2018-10-03T05:47:00.279Z,99993.48
2018-10-03T05:49:28.860Z,100007.75
2018-10-03T05:51:57.574Z,100020.39
2018-10-03T05:54:26.062Z,100025.44
2018-10-03T05:56:54.776Z,100029.81
2018-10-03T05:59:23.334Z,100037.55
2018-10-03T06:01:52.126Z,100035.72
2018-10-03T06:04:20.658Z,100052.23
2018-10-03T06:06:49.217Z,100063.47
2018-10-03T06:09:18.034Z,100065.97
2018-10-03T06:11:47.630Z,100069.12
2018-10-03T06:14:16.354Z,100077.75
2018-10-03T06:16:44.834Z,100082.41
2018-10-03T06:19:13.536Z,99991.11
2018-10-03T06:21:42.195Z,100090.75
2018-10-03T06:24:10.792Z,100096.50
2018-10-03T06:26:39.271Z,100099.79
2018-10-03T06:29:07.962Z,100107.91
2018-10-03T06:31:36.730Z,100075.80
2018-10-03T06:34:05.223Z,100133.08
2018-10-03T06:36:33.964Z,100073.56
2018-10-03T06:39:02.674Z,100146.19
2018-10-03T06:41:31.174Z,100152.06
2018-10-03T06:44:00.754Z,100157.72
2018-10-03T06:46:29.281Z,100160.20
2018-10-03T06:48:57.766Z,100175.01
2018-10-03T06:51:26.399Z,100180.03
2018-10-03T06:53:55.087Z,100190.25
2018-10-03T06:56:23.583Z,100193.92
2018-10-03T06:58:52.430Z,100146.83
2018-10-03T07:01:20.974Z,100209.02
2018-10-03T07:03:49.582Z,100208.95
2018-10-03T07:06:18.195Z,100221.45
2018-10-03T07:08:46.767Z,100217.26
2018-10-03T07:11:15.615Z,100217.52
2018-10-03T07:13:44.116Z,100229.17
2018-10-03T07:16:13.353Z,100126.38
2018-10-03T07:18:41.826Z,100236.02
2018-10-03T07:21:10.590Z,100248.46
2018-10-03T07:23:39.080Z,100254.69
2018-10-03T07:26:08.238Z,100260.67
2018-10-03T07:28:36.884Z,100273.52
2018-10-03T07:31:05.430Z,100274.19
2018-10-03T07:33:34.253Z,100269.70
2018-10-03T07:36:02.785Z,100279.13
2018-10-03T07:38:31.613Z,100281.63
2018-10-03T07:41:00.192Z,100284.78
2018-10-03T07:43:28.820Z,100295.66
2018-10-03T07:45:57.569Z,100307.21
2018-10-03T07:48:26.559Z,100313.05
2018-10-03T07:50:55.318Z,100320.73
2018-10-03T07:53:23.863Z,100336.17
2018-10-03T07:55:52.594Z,100300.55
2018-10-03T07:58:21.235Z,100342.84
2018-10-03T08:00:49.949Z,100339.22
2018-10-03T08:03:18.523Z,100347.31
2018-10-03T08:05:47.136Z,100356.03
2018-10-03T08:08:16.334Z,100366.99
2018-10-03T08:10:45.011Z,100371.11
2018-10-03T08:13:13.705Z,100384.97
2018-10-03T08:15:42.234Z,100385.56
2018-10-03T08:18:11.220Z,100339.90
2018-10-03T08:20:39.767Z,100388.12
2018-10-03T08:23:08.568Z,100394.34
2018-10-03T08:25:37.230Z,100394.73
2018-10-03T08:28:05.856Z,100401.16
2018-10-03T08:30:34.402Z,100393.94
2018-10-03T08:33:02.950Z,100397.64
2018-10-03T08:35:32.080Z,100357.89
2018-10-03T08:38:01.250Z,100406.55
2018-10-03T08:40:30.586Z,100356.71
2018-10-03T08:42:59.387Z,100411.81
2018-10-03T08:45:28.483Z,100419.17
2018-10-03T08:47:56.963Z,100428.34
2018-10-03T08:50:25.561Z,100431.12
2018-10-03T08:52:54.067Z,100416.39
2018-10-03T08:55:22.623Z,100426.21
2018-10-03T08:57:51.386Z,100423.83
2018-10-03T09:00:20.031Z,100428.14
2018-10-03T09:02:49.599Z,100440.48
2018-10-03T09:05:18.198Z,100437.02
2018-10-03T09:07:47.206Z,100438.47
2018-10-03T09:10:15.749Z,100440.77
2018-10-03T09:12:44.310Z,100447.77
2018-10-03T09:15:13.522Z,100451.95
2018-10-03T09:17:42.038Z,100459.80
2018-10-03T09:20:12.339Z,100391.70
2018-10-03T09:22:40.822Z,100469.27
2018-10-03T09:25:10.326Z,100461.38
2018-10-03T09:27:38.826Z,100477.23
2018-10-03T09:30:08.197Z,100435.88
2018-10-03T09:32:36.780Z,100489.43
2018-10-03T09:35:06.396Z,100487.27
2018-10-03T09:37:37.071Z,100500.13
2018-10-03T09:40:06.224Z,100470.36
2018-10-03T09:42:34.880Z,100522.48
2018-10-03T09:45:03.779Z,100513.12
2018-10-03T09:47:32.394Z,100517.83
2018-10-03T09:50:01.292Z,100523.66
2018-10-03T09:52:29.928Z,100519.34
2018-10-03T09:54:58.473Z,100521.25
2018-10-03T09:57:27.350Z,100521.97
2018-10-03T09:59:56.006Z,100522.76
2018-10-03T10:02:25.505Z,100532.13
2018-10-03T10:04:54.141Z,100531.04
2018-10-03T10:07:23.111Z,100531.83
2018-10-03T10:09:51.649Z,100530.58
2018-10-03T10:12:20.557Z,100545.94
2018-10-03T10:14:49.079Z,100542.23
2018-10-03T10:17:17.650Z,100554.63
2018-10-03T10:19:46.590Z,100554.77
2018-10-03T10:22:15.258Z,100557.17
2018-10-03T10:24:44.358Z,100555.61
2018-10-03T10:27:12.929Z,100564.53
2018-10-03T10:29:42.064Z,100566.11
2018-10-03T10:32:10.625Z,100571.22
2018-10-03T10:34:39.396Z,100514.61
2018-10-03T10:37:07.942Z,100585.27
2018-10-03T10:39:36.563Z,100587.88
2018-10-03T10:42:05.114Z,100599.83
2018-10-03T10:44:33.606Z,100591.34
2018-10-03T10:47:02.780Z,100595.77
2018-10-03T10:49:31.258Z,100619.05
2018-10-03T10:52:00.295Z,100591.50
2018-10-03T10:54:28.861Z,100605.02
2018-10-03T10:56:58.666Z,100599.80
2018-10-03T10:59:27.234Z,100601.58
2018-10-03T11:01:55.818Z,100605.66
2018-10-03T11:04:24.462Z,100610.08
2018-10-03T11:06:53.106Z,100613.87
2018-10-03T11:09:21.957Z,100531.55
2018-10-03T11:11:50.490Z,100617.52
2018-10-03T11:14:20.182Z,100623.41
2018-10-03T11:16:48.764Z,100635.13
2018-10-03T11:19:17.930Z,100561.52
2018-10-03T11:21:46.418Z,100635.88
2018-10-03T11:24:15.455Z,100635.34
2018-10-03T11:26:44.390Z,100637.20
2018-10-03T11:29:13.018Z,100638.03
2018-10-03T11:31:42.394Z,100641.45
2018-10-03T11:34:10.946Z,100645.75
2018-10-03T11:36:39.951Z,100608.64
2018-10-03T11:39:09.594Z,100645.34
2018-10-03T11:41:39.196Z,100633.23
2018-10-03T11:44:07.790Z,100639.53
2018-10-03T11:46:37.122Z,100644.47
2018-10-03T11:49:05.763Z,100648.98
2018-10-03T11:51:35.158Z,100664.02
2018-10-03T11:54:03.639Z,100652.78
2018-10-03T11:56:32.290Z,100665.36
2018-10-03T11:59:01.752Z,100670.08
2018-10-03T12:01:30.513Z,100674.94
2018-10-03T12:03:59.114Z,100666.66
2018-10-03T12:06:27.719Z,100660.04
2018-10-03T12:08:56.579Z,100673.21
2018-10-03T12:11:25.118Z,100686.88
2018-10-03T12:13:54.018Z,100679.97
2018-10-03T12:16:22.515Z,100689.52
2018-10-03T12:18:51.230Z,100697.53
2018-10-03T12:21:19.755Z,100691.55
2018-10-03T12:23:48.291Z,100697.63
2018-10-03T12:26:17.443Z,100657.11
2018-10-03T12:28:46.027Z,100695.06
2018-10-03T12:31:15.019Z,100694.71
2018-10-03T12:33:43.573Z,100700.36
2018-10-03T12:36:12.537Z,100699.83
2018-10-03T12:38:41.018Z,100695.69
2018-10-03T12:41:09.686Z,100705.87
2018-10-03T12:43:38.206Z,100719.19
2018-10-03T12:46:07.666Z,100714.16
2018-10-03T12:48:36.534Z,100715.81
2018-10-03T12:51:05.058Z,100716.27
2018-10-03T12:53:33.596Z,100729.95
2018-10-03T12:56:02.182Z,100726.49
2018-10-03T12:58:30.961Z,100733.74
2018-10-03T13:00:59.489Z,100736.80
2018-10-03T13:03:28.415Z,100737.88
2018-10-03T13:05:57.071Z,100730.81
2018-10-03T13:08:25.572Z,100735.75
2018-10-03T13:10:54.754Z,100730.23
2018-10-03T13:13:23.496Z,100752.30
2018-10-03T13:15:52.772Z,100747.45
2018-10-03T13:18:21.284Z,100760.61
2018-10-03T13:20:50.051Z,100761.95
2018-10-03T13:23:18.541Z,100754.97
2018-10-03T13:25:47.190Z,100755.73
2018-10-03T13:28:15.846Z,100730.14
2018-10-03T13:30:44.449Z,100758.39
2018-10-03T13:33:13.220Z,100758.05
2018-10-03T13:35:41.762Z,100762.30
2018-10-03T13:38:10.390Z,100758.73
2018-10-03T13:40:38.994Z,100759.30
2018-10-03T13:43:07.565Z,100761.23
2018-10-03T13:45:36.131Z,100757.61
2018-10-03T13:48:04.690Z,100756.00
2018-10-03T13:50:33.380Z,100703.34
2018-10-03T13:53:01.943Z,100758.73
2018-10-03T13:55:30.832Z,100765.55
2018-10-03T13:57:59.518Z,100772.72
2018-10-03T14:00:28.477Z,100775.19
2018-10-03T14:02:57.063Z,100775.17
2018-10-03T14:05:25.631Z,100770.16
2018-10-03T14:07:54.360Z,100767.23
2018-10-03T14:10:22.943Z,100776.49
2018-10-03T14:12:51.641Z,100774.39
2018-10-03T14:15:20.128Z,100767.95
2018-10-03T14:17:48.840Z,100774.02
2018-10-03T14:20:17.423Z,100780.81
2018-10-03T14:22:46.038Z,100780.15
2018-10-03T14:25:14.686Z,100780.14
2018-10-03T14:27:43.214Z,100792.80
2018-10-03T14:30:12.121Z,100780.72
2018-10-03T14:32:40.727Z,100789.20
2018-10-03T14:35:09.696Z,100734.10
2018-10-03T14:37:38.182Z,100795.04
2018-10-03T14:40:06.740Z,100787.25
2018-10-03T14:42:35.278Z,100791.84
2018-10-03T14:45:04.202Z,100787.67
2018-10-03T14:47:32.826Z,100789.71
2018-10-03T14:50:01.312Z,100790.83
2018-10-03T14:52:30.197Z,100751.87
2018-10-03T14:54:58.678Z,100788.47
2018-10-03T14:57:27.349Z,100793.64
2018-10-03T14:59:55.993Z,100789.09
2018-10-03T15:02:24.547Z,100794.73
2018-10-03T15:04:53.142Z,100792.86
2018-10-03T15:07:21.679Z,100790.13
2018-10-03T15:09:50.678Z,100799.19
2018-10-03T15:12:19.197Z,100793.20
2018-10-03T15:14:47.943Z,100792.13
2018-10-03T15:17:16.626Z,100800.72
2018-10-03T15:19:45.255Z,100811.05
2018-10-03T15:22:13.757Z,100811.46
2018-10-03T15:24:42.282Z,100818.78
2018-10-03T15:27:10.939Z,100810.47
2018-10-03T15:29:39.456Z,100813.44
2018-10-03T15:32:08.202Z,100812.73
2018-10-03T15:34:36.674Z,100816.25
2018-10-03T15:37:05.456Z,100820.70
2018-10-03T15:39:33.974Z,100823.50
2018-10-03T15:42:02.650Z,100814.33
2018-10-03T15:44:31.278Z,100820.02
2018-10-03T15:46:59.810Z,100823.50
2018-10-03T15:49:28.615Z,100827.70
2018-10-03T15:51:57.092Z,100836.30
2018-10-03T15:54:26.031Z,100841.58
2018-10-03T15:56:54.720Z,100835.66
2018-10-03T15:59:23.296Z,100838.46
2018-10-03T16:01:51.904Z,100831.63
2018-10-03T16:04:20.386Z,100838.14
2018-10-03T16:06:49.275Z,100831.00
2018-10-03T16:09:17.810Z,100829.68
2018-10-03T16:11:46.680Z,100797.30
2018-10-03T16:14:15.253Z,100831.00
2018-10-03T16:16:43.871Z,100830.31
2018-10-03T16:19:12.527Z,100831.63
2018-10-03T16:21:41.051Z,100836.13
2018-10-03T16:24:09.674Z,100755.91
2018-10-03T16:26:38.210Z,100838.22
2018-10-03T16:29:06.986Z,100839.70
2018-10-03T16:31:35.558Z,100842.52
2018-10-03T16:34:04.348Z,100772.69
2018-10-03T16:36:32.916Z,100804.89
2018-10-03T16:39:01.567Z,100849.47
2018-10-03T16:41:30.081Z,100857.73
2018-10-03T16:43:58.572Z,100856.00
2018-10-03T16:46:27.358Z,100860.75
2018-10-03T16:48:55.872Z,100857.39
2018-10-03T16:51:24.662Z,100862.56
2018-10-03T16:53:53.238Z,100863.38
2018-10-03T16:56:21.886Z,100859.34
2018-10-03T16:58:50.393Z,100863.17
2018-10-03T17:01:18.919Z,100867.84
2018-10-03T17:03:48.406Z,100870.33
2018-10-03T17:06:16.886Z,100870.48
2018-10-03T17:08:45.824Z,100880.38
2018-10-03T17:11:14.308Z,100878.17
2018-10-03T17:13:54.121Z,100884.43
2018-10-03T17:16:22.887Z,100886.31
2018-10-03T17:18:51.378Z,100890.23
2018-10-03T17:21:20.392Z,100888.70
2018-10-03T17:23:48.940Z,100888.34
2018-10-03T17:26:17.743Z,100789.61
2018-10-03T17:28:46.318Z,100895.34
2018-10-03T17:31:15.002Z,100895.39
2018-10-03T17:33:43.575Z,100893.63
2018-10-03T17:36:12.260Z,100899.23
2018-10-03T17:38:40.854Z,100890.61
2018-10-03T17:41:09.366Z,100908.31
2018-10-03T17:43:38.919Z,100916.66
2018-10-03T17:46:07.776Z,100912.51
2018-10-03T17:48:36.651Z,100911.12
2018-10-03T17:51:05.239Z,100916.31
2018-10-03T17:53:33.754Z,100912.76
2018-10-03T17:56:02.313Z,100911.00
2018-10-03T17:58:30.914Z,100916.24
2018-10-03T18:00:59.570Z,100911.52
2018-10-03T18:03:28.266Z,100924.73
2018-10-03T18:05:56.958Z,100925.08
2018-10-03T18:08:25.554Z,100932.33
2018-10-03T18:10:54.319Z,100933.48
2018-10-03T18:13:22.916Z,100930.70
2018-10-03T18:15:51.444Z,100937.94
2018-10-03T18:18:20.010Z,100937.22
2018-10-03T18:20:49.228Z,100936.19
2018-10-03T18:23:18.272Z,100821.31
2018-10-03T18:25:47.137Z,100935.81
2018-10-03T18:28:15.974Z,100854.63
2018-10-03T18:30:44.465Z,100934.12
2018-10-03T18:33:13.162Z,100940.02
2018-10-03T18:35:41.735Z,100931.53
2018-10-03T18:38:10.322Z,100939.13
2018-10-03T18:40:38.914Z,100892.19
2018-10-03T18:43:07.449Z,100938.23
2018-10-03T18:45:36.231Z,100935.70
2018-10-03T18:48:04.911Z,100938.44
2018-10-03T18:50:33.514Z,100939.95
2018-10-03T18:53:02.092Z,100935.30
2018-10-03T18:55:30.686Z,100939.77
2018-10-03T18:57:59.302Z,100947.41
2018-10-03T19:00:28.179Z,100947.99
2018-10-03T19:02:57.266Z,100880.95
2018-10-03T19:05:25.841Z,100954.80
2018-10-03T19:07:54.735Z,100951.45
2018-10-03T19:10:23.362Z,100961.27
2018-10-03T19:12:52.414Z,100958.31
2018-10-03T19:15:20.962Z,100954.47
2018-10-03T19:17:49.506Z,100954.99
2018-10-03T19:20:18.164Z,100956.80
2018-10-03T19:22:46.724Z,100962.96
2018-10-03T19:25:15.562Z,100965.20
2018-10-03T19:27:44.055Z,100964.91
2018-10-03T19:30:12.834Z,100969.28
2018-10-03T19:32:41.366Z,100969.85
2018-10-03T19:35:10.066Z,100974.75
2018-10-03T19:37:38.679Z,100968.59
2018-10-03T19:40:07.272Z,100973.44
2018-10-03T19:42:36.166Z,100927.52
2018-10-03T19:45:04.877Z,100959.73
2018-10-03T19:47:33.760Z,100980.97
2018-10-03T19:50:02.349Z,100972.31
2018-10-03T19:52:31.276Z,100972.70
2018-10-03T19:54:59.921Z,100968.77
2018-10-03T19:57:28.481Z,100967.86
2018-10-03T19:59:57.054Z,100980.44
2018-10-03T20:02:25.691Z,100984.28
2018-10-03T20:04:54.461Z,100979.87
2018-10-03T20:07:23.874Z,100984.72
2018-10-03T20:09:52.740Z,100979.82
2018-10-03T20:12:21.332Z,100983.13
2018-10-03T20:14:50.223Z,100977.89
2018-10-03T20:17:19.214Z,100979.34
2018-10-03T20:19:47.838Z,100984.69
2018-10-03T20:22:16.398Z,100976.39
2018-10-03T20:24:44.923Z,100982.16
2018-10-03T20:27:13.766Z,100948.73
2018-10-03T20:29:42.283Z,100990.61
2018-10-03T20:32:11.182Z,100991.87
2018-10-03T20:34:39.940Z,100992.34
2018-10-03T20:37:08.497Z,100991.63
2018-10-03T20:39:36.998Z,101000.30
2018-10-03T20:42:05.690Z,101007.67
2018-10-03T20:44:34.291Z,101007.63
2018-10-03T20:47:02.823Z,101014.98
2018-10-03T20:49:31.447Z,101019.73
2018-10-03T20:52:00.012Z,101025.77
2018-10-03T20:54:28.907Z,100961.32
2018-10-03T20:56:57.406Z,101039.05
2018-10-03T20:59:26.137Z,101038.02
2018-10-03T21:01:54.938Z,101017.35
2018-10-03T21:04:23.441Z,101047.33
2018-10-03T21:06:52.014Z,101044.97
2018-10-03T21:09:20.688Z,101059.57
2018-10-03T21:11:49.323Z,101053.23
2018-10-03T21:14:17.957Z,101059.55
2018-10-03T21:16:46.606Z,101063.66
2018-10-03T21:19:15.224Z,101064.70
2018-10-03T21:21:43.754Z,101074.03
2018-10-03T21:24:12.303Z,101068.55
2018-10-03T21:26:40.887Z,101073.08
2018-10-03T21:29:09.658Z,101069.02
2018-10-03T21:31:38.241Z,101080.30
2018-10-03T21:34:07.187Z,101093.00
2018-10-03T21:36:35.814Z,101086.91
2018-10-03T21:39:05.829Z,101088.27
2018-10-03T21:41:34.310Z,101090.13
2018-10-03T21:44:02.924Z,101083.25
2018-10-03T21:46:31.534Z,101080.71
2018-10-03T21:49:00.122Z,101078.20
2018-10-03T21:51:28.766Z,101079.16
2018-10-03T21:53:57.286Z,101084.47
2018-10-03T21:56:25.982Z,101077.56
2018-10-03T21:58:54.479Z,101083.81
2018-10-03T22:01:23.336Z,101077.37
2018-10-03T22:03:51.873Z,101077.05
2018-10-03T22:06:20.374Z,101083.23
2018-10-03T22:08:49.030Z,101094.20
2018-10-03T22:11:17.626Z,101093.88
2018-10-03T22:13:46.330Z,101097.86
2018-10-03T22:16:14.930Z,101101.86
2018-10-03T22:18:43.610Z,101006.50
2018-10-03T22:21:12.150Z,101102.84
2018-10-03T22:23:40.766Z,101114.25
2018-10-03T22:26:09.226Z,101108.67
2018-10-03T22:28:37.719Z,101112.66
2018-10-03T22:31:06.390Z,101000.48
2018-10-03T22:33:34.961Z,101116.22
2018-10-03T22:36:03.678Z,101115.45
2018-10-03T22:38:32.226Z,101110.31
2018-10-03T22:41:00.900Z,101120.41
2018-10-03T22:43:29.374Z,101123.59
2018-10-03T22:45:57.912Z,101130.59
2018-10-03T22:48:26.650Z,101120.31
2018-10-03T22:50:55.142Z,101131.22
2018-10-03T22:53:23.834Z,101133.42
2018-10-03T22:55:52.350Z,101135.23
2018-10-03T22:58:21.066Z,101140.55
2018-10-03T23:00:49.606Z,101136.25
2018-10-03T23:03:18.102Z,101139.77
2018-10-03T23:05:46.686Z,101126.93
2018-10-03T23:08:15.336Z,101134.66
2018-10-03T23:10:44.115Z,101136.42
2018-10-03T23:13:12.643Z,101131.38
2018-10-03T23:15:41.394Z,101145.28
2018-10-03T23:18:10.052Z,101144.44
2018-10-03T23:20:38.670Z,101152.83
2018-10-03T23:23:07.332Z,101155.09
2018-10-03T23:25:35.802Z,101162.99
2018-10-03T23:28:04.498Z,101169.98
2018-10-03T23:30:33.081Z,101170.89
2018-10-03T23:33:01.762Z,101170.04
2018-10-03T23:35:30.272Z,101170.06
2018-10-03T23:37:58.791Z,101170.09
2018-10-03T23:40:27.413Z,101171.81
2018-10-03T23:42:55.880Z,101177.09
2018-10-03T23:45:24.577Z,101160.30
2018-10-03T23:47:53.098Z,101174.97
2018-10-03T23:50:21.852Z,101069.67
2018-10-03T23:52:50.431Z,101181.63
2018-10-03T23:55:19.079Z,101181.22
2018-10-03T23:57:47.558Z,101187.39
